sensor_id;sensor_type;location;lat;lon;timestamp;temperature;humidity
52034;DHT22;38045;52.988;6.536;2023-02-18T00:01:26;7.60;99.90
52034;DHT22;38045;52.988;6.536;2023-02-18T00:03:54;7.60;99.90
52034;DHT22;38045;52.988;6.536;2023-02-18T00:06:31;7.60;99.90
52034;DHT22;38045;52.988;6.536;2023-02-18T00:08:58;7.60;99.90
52034;DHT22;38045;52.988;6.536;2023-02-18T00:11:27;7.60;99.90
52034;DHT22;38045;52.988;6.536;2023-02-18T00:13:58;7.60;99.90
52034;DHT22;38045;52.988;6.536;2023-02-18T00:16:25;7.60;99.90
52034;DHT22;38045;52.988;6.536;2023-02-18T00:18:58;7.60;99.90
52034;DHT22;38045;52.988;6.536;2023-02-18T00:21:24;7.60;99.90
52034;DHT22;38045;52.988;6.536;2023-02-18T00:23:50;7.70;99.90
52034;DHT22;38045;52.988;6.536;2023-02-18T00:26:17;7.60;99.90
52034;DHT22;38045;52.988;6.536;2023-02-18T00:28:44;7.60;99.90
52034;DHT22;38045;52.988;6.536;2023-02-18T00:31:13;7.60;99.90
52034;DHT22;38045;52.988;6.536;2023-02-18T00:33:39;7.60;99.90
52034;DHT22;38045;52.988;6.536;2023-02-18T00:36:08;7.60;99.90
52034;DHT22;38045;52.988;6.536;2023-02-18T00:38:34;7.60;99.90
52034;DHT22;38045;52.988;6.536;2023-02-18T00:41:00;7.60;99.90
52034;DHT22;38045;52.988;6.536;2023-02-18T00:43:26;7.60;99.90
52034;DHT22;38045;52.988;6.536;2023-02-18T00:45:52;7.60;99.90
52034;DHT22;38045;52.988;6.536;2023-02-18T00:48:17;7.60;99.90
52034;DHT22;38045;52.988;6.536;2023-02-18T00:50:44;7.60;99.90
52034;DHT22;38045;52.988;6.536;2023-02-18T00:53:09;7.60;99.90
52034;DHT22;38045;52.988;6.536;2023-02-18T00:55:42;7.60;99.90
52034;DHT22;38045;52.988;6.536;2023-02-18T00:58:09;7.60;99.90
52034;DHT22;38045;52.988;6.536;2023-02-18T01:00:34;7.60;99.90
52034;DHT22;38045;52.988;6.536;2023-02-18T01:03:00;7.70;99.90
52034;DHT22;38045;52.988;6.536;2023-02-18T01:05:27;7.70;99.90
52034;DHT22;38045;52.988;6.536;2023-02-18T01:07:53;7.70;99.90
52034;DHT22;38045;52.988;6.536;2023-02-18T01:10:19;7.70;99.90
52034;DHT22;38045;52.988;6.536;2023-02-18T01:12:44;7.70;99.90
52034;DHT22;38045;52.988;6.536;2023-02-18T01:15:13;7.70;99.90
52034;DHT22;38045;52.988;6.536;2023-02-18T01:17:39;7.70;99.90
52034;DHT22;38045;52.988;6.536;2023-02-18T01:20:05;7.70;99.90
52034;DHT22;38045;52.988;6.536;2023-02-18T01:22:31;7.70;99.90
52034;DHT22;38045;52.988;6.536;2023-02-18T01:24:57;7.70;99.90
52034;DHT22;38045;52.988;6.536;2023-02-18T01:27:22;7.80;99.90
52034;DHT22;38045;52.988;6.536;2023-02-18T01:29:48;7.80;99.90
52034;DHT22;38045;52.988;6.536;2023-02-18T01:32:14;7.80;99.90
52034;DHT22;38045;52.988;6.536;2023-02-18T01:34:40;7.80;99.90
52034;DHT22;38045;52.988;6.536;2023-02-18T01:37:05;7.80;99.90
52034;DHT22;38045;52.988;6.536;2023-02-18T01:39:31;7.90;99.90
52034;DHT22;38045;52.988;6.536;2023-02-18T01:41:57;7.90;99.90
52034;DHT22;38045;52.988;6.536;2023-02-18T01:44:25;7.90;99.90
52034;DHT22;38045;52.988;6.536;2023-02-18T01:46:51;7.90;99.90
52034;DHT22;38045;52.988;6.536;2023-02-18T01:49:26;7.90;99.90
52034;DHT22;38045;52.988;6.536;2023-02-18T01:51:56;7.90;99.90
52034;DHT22;38045;52.988;6.536;2023-02-18T01:54:35;7.90;99.90
52034;DHT22;38045;52.988;6.536;2023-02-18T01:57:11;7.90;99.90
52034;DHT22;38045;52.988;6.536;2023-02-18T02:02:07;8.00;99.90
52034;DHT22;38045;52.988;6.536;2023-02-18T02:04:35;7.90;99.90
52034;DHT22;38045;52.988;6.536;2023-02-18T02:07:00;8.00;99.90
52034;DHT22;38045;52.988;6.536;2023-02-18T02:09:28;7.90;99.90
52034;DHT22;38045;52.988;6.536;2023-02-18T02:12:54;7.90;99.90
52034;DHT22;38045;52.988;6.536;2023-02-18T02:15:13;7.90;99.90
52034;DHT22;38045;52.988;6.536;2023-02-18T02:35:21;7.90;99.90
52034;DHT22;38045;52.988;6.536;2023-02-18T02:38:06;8.00;99.90
52034;DHT22;38045;52.988;6.536;2023-02-18T02:43:30;8.00;99.90
52034;DHT22;38045;52.988;6.536;2023-02-18T02:54:18;8.00;99.90
52034;DHT22;38045;52.988;6.536;2023-02-18T02:56:45;8.10;99.90
52034;DHT22;38045;52.988;6.536;2023-02-18T02:59:21;8.10;99.90
52034;DHT22;38045;52.988;6.536;2023-02-18T03:07:36;8.10;99.90
52034;DHT22;38045;52.988;6.536;2023-02-18T03:18:00;8.10;99.90
52034;DHT22;38045;52.988;6.536;2023-02-18T03:20:40;8.10;99.90
52034;DHT22;38045;52.988;6.536;2023-02-18T03:23:12;8.10;99.90
52034;DHT22;38045;52.988;6.536;2023-02-18T03:25:39;8.20;99.90
52034;DHT22;38045;52.988;6.536;2023-02-18T03:28:08;8.20;99.90
52034;DHT22;38045;52.988;6.536;2023-02-18T03:30:42;8.20;99.90
52034;DHT22;38045;52.988;6.536;2023-02-18T03:33:12;8.20;99.90
52034;DHT22;38045;52.988;6.536;2023-02-18T03:35:39;8.30;99.90
52034;DHT22;38045;52.988;6.536;2023-02-18T03:38:11;8.30;99.90
52034;DHT22;38045;52.988;6.536;2023-02-18T03:40:38;8.40;99.90
52034;DHT22;38045;52.988;6.536;2023-02-18T03:43:03;8.40;99.90
52034;DHT22;38045;52.988;6.536;2023-02-18T03:45:29;8.40;99.90
52034;DHT22;38045;52.988;6.536;2023-02-18T03:47:55;8.50;99.90
52034;DHT22;38045;52.988;6.536;2023-02-18T03:50:20;8.50;99.90
52034;DHT22;38045;52.988;6.536;2023-02-18T03:52:46;8.50;99.90
52034;DHT22;38045;52.988;6.536;2023-02-18T03:55:12;8.50;99.90
52034;DHT22;38045;52.988;6.536;2023-02-18T03:57:38;8.50;99.90
52034;DHT22;38045;52.988;6.536;2023-02-18T04:00:04;8.50;99.90
52034;DHT22;38045;52.988;6.536;2023-02-18T04:02:31;8.50;99.90
52034;DHT22;38045;52.988;6.536;2023-02-18T04:04:57;8.60;99.90
52034;DHT22;38045;52.988;6.536;2023-02-18T04:07:23;8.60;99.90
52034;DHT22;38045;52.988;6.536;2023-02-18T04:09:48;9.00;99.90
52034;DHT22;38045;52.988;6.536;2023-02-18T04:12:14;8.70;99.90
52034;DHT22;38045;52.988;6.536;2023-02-18T04:14:39;8.70;99.90
52034;DHT22;38045;52.988;6.536;2023-02-18T04:17:05;8.70;99.90
52034;DHT22;38045;52.988;6.536;2023-02-18T04:19:31;8.70;99.90
52034;DHT22;38045;52.988;6.536;2023-02-18T04:21:56;8.80;99.90
52034;DHT22;38045;52.988;6.536;2023-02-18T04:24:22;8.80;99.90
52034;DHT22;38045;52.988;6.536;2023-02-18T04:26:47;8.80;99.90
52034;DHT22;38045;52.988;6.536;2023-02-18T04:29:13;8.80;99.90
52034;DHT22;38045;52.988;6.536;2023-02-18T04:31:39;8.80;99.90
52034;DHT22;38045;52.988;6.536;2023-02-18T04:34:04;8.90;99.90
52034;DHT22;38045;52.988;6.536;2023-02-18T04:36:30;8.90;99.90
52034;DHT22;38045;52.988;6.536;2023-02-18T04:38:56;9.00;99.90
52034;DHT22;38045;52.988;6.536;2023-02-18T04:41:21;9.00;99.90
52034;DHT22;38045;52.988;6.536;2023-02-18T04:43:47;9.00;99.90
52034;DHT22;38045;52.988;6.536;2023-02-18T04:46:13;9.10;99.90
52034;DHT22;38045;52.988;6.536;2023-02-18T04:48:38;9.00;99.90
52034;DHT22;38045;52.988;6.536;2023-02-18T04:51:04;9.00;99.90
52034;DHT22;38045;52.988;6.536;2023-02-18T04:53:30;9.00;99.90
52034;DHT22;38045;52.988;6.536;2023-02-18T04:55:56;9.00;99.90
52034;DHT22;38045;52.988;6.536;2023-02-18T04:58:21;9.00;99.90
52034;DHT22;38045;52.988;6.536;2023-02-18T05:00:47;9.00;99.90
52034;DHT22;38045;52.988;6.536;2023-02-18T05:03:13;9.00;99.90
52034;DHT22;38045;52.988;6.536;2023-02-18T05:05:39;9.00;99.90
52034;DHT22;38045;52.988;6.536;2023-02-18T05:08:06;8.90;99.90
52034;DHT22;38045;52.988;6.536;2023-02-18T05:10:33;9.00;99.90
52034;DHT22;38045;52.988;6.536;2023-02-18T05:12:59;8.90;99.90
52034;DHT22;38045;52.988;6.536;2023-02-18T05:15:24;8.90;99.90
52034;DHT22;38045;52.988;6.536;2023-02-18T05:17:50;8.80;99.90
52034;DHT22;38045;52.988;6.536;2023-02-18T05:20:16;8.80;99.90
52034;DHT22;38045;52.988;6.536;2023-02-18T05:22:41;8.90;99.90
52034;DHT22;38045;52.988;6.536;2023-02-18T05:25:07;8.90;99.90
52034;DHT22;38045;52.988;6.536;2023-02-18T05:27:33;8.80;99.90
52034;DHT22;38045;52.988;6.536;2023-02-18T05:29:59;8.80;99.90
52034;DHT22;38045;52.988;6.536;2023-02-18T05:32:24;8.90;99.90
52034;DHT22;38045;52.988;6.536;2023-02-18T05:34:50;8.80;99.90
52034;DHT22;38045;52.988;6.536;2023-02-18T05:37:16;8.80;99.90
52034;DHT22;38045;52.988;6.536;2023-02-18T05:39:43;8.80;99.90
52034;DHT22;38045;52.988;6.536;2023-02-18T05:42:09;8.90;99.90
52034;DHT22;38045;52.988;6.536;2023-02-18T05:44:35;8.90;99.90
52034;DHT22;38045;52.988;6.536;2023-02-18T05:47:03;8.90;99.90
52034;DHT22;38045;52.988;6.536;2023-02-18T05:49:30;8.90;99.90
52034;DHT22;38045;52.988;6.536;2023-02-18T05:51:56;8.90;99.90
52034;DHT22;38045;52.988;6.536;2023-02-18T05:54:22;9.00;99.90
52034;DHT22;38045;52.988;6.536;2023-02-18T05:56:48;9.00;99.90
52034;DHT22;38045;52.988;6.536;2023-02-18T05:59:14;9.00;99.90
52034;DHT22;38045;52.988;6.536;2023-02-18T06:01:40;9.00;99.90
52034;DHT22;38045;52.988;6.536;2023-02-18T06:04:05;9.10;99.90
52034;DHT22;38045;52.988;6.536;2023-02-18T06:06:31;9.00;99.90
52034;DHT22;38045;52.988;6.536;2023-02-18T06:08:57;9.10;99.90
52034;DHT22;38045;52.988;6.536;2023-02-18T06:11:22;9.10;99.90
52034;DHT22;38045;52.988;6.536;2023-02-18T06:13:48;9.20;99.90
52034;DHT22;38045;52.988;6.536;2023-02-18T06:16:13;9.20;99.90
52034;DHT22;38045;52.988;6.536;2023-02-18T06:18:39;9.20;99.90
52034;DHT22;38045;52.988;6.536;2023-02-18T06:21:05;9.30;99.90
52034;DHT22;38045;52.988;6.536;2023-02-18T06:23:31;9.40;99.90
52034;DHT22;38045;52.988;6.536;2023-02-18T06:25:56;9.40;99.90
52034;DHT22;38045;52.988;6.536;2023-02-18T06:28:22;9.50;99.90
52034;DHT22;38045;52.988;6.536;2023-02-18T06:30:48;9.50;99.90
52034;DHT22;38045;52.988;6.536;2023-02-18T06:33:14;9.60;99.90
52034;DHT22;38045;52.988;6.536;2023-02-18T06:35:39;9.60;99.90
52034;DHT22;38045;52.988;6.536;2023-02-18T06:38:05;9.60;99.90
52034;DHT22;38045;52.988;6.536;2023-02-18T06:40:31;9.70;99.90
52034;DHT22;38045;52.988;6.536;2023-02-18T06:42:56;9.70;99.90
52034;DHT22;38045;52.988;6.536;2023-02-18T06:45:22;9.70;99.90
52034;DHT22;38045;52.988;6.536;2023-02-18T06:47:48;9.70;99.90
52034;DHT22;38045;52.988;6.536;2023-02-18T06:50:14;9.70;99.90
52034;DHT22;38045;52.988;6.536;2023-02-18T06:52:40;9.70;99.90
52034;DHT22;38045;52.988;6.536;2023-02-18T06:55:06;9.80;99.90
52034;DHT22;38045;52.988;6.536;2023-02-18T06:57:32;9.80;99.90
52034;DHT22;38045;52.988;6.536;2023-02-18T06:59:58;9.80;99.90
52034;DHT22;38045;52.988;6.536;2023-02-18T07:02:23;9.80;99.90
52034;DHT22;38045;52.988;6.536;2023-02-18T07:04:49;9.80;99.90
52034;DHT22;38045;52.988;6.536;2023-02-18T07:07:14;9.80;99.90
52034;DHT22;38045;52.988;6.536;2023-02-18T07:09:40;9.80;99.90
52034;DHT22;38045;52.988;6.536;2023-02-18T07:12:06;9.90;99.90
52034;DHT22;38045;52.988;6.536;2023-02-18T07:14:31;9.90;99.90
52034;DHT22;38045;52.988;6.536;2023-02-18T07:16:57;9.90;99.90
52034;DHT22;38045;52.988;6.536;2023-02-18T07:19:23;10.00;99.90
52034;DHT22;38045;52.988;6.536;2023-02-18T07:21:48;10.00;99.90
52034;DHT22;38045;52.988;6.536;2023-02-18T07:24:14;10.00;99.90
52034;DHT22;38045;52.988;6.536;2023-02-18T07:26:40;10.00;99.90
52034;DHT22;38045;52.988;6.536;2023-02-18T07:29:05;10.00;99.90
52034;DHT22;38045;52.988;6.536;2023-02-18T07:31:31;10.10;99.90
52034;DHT22;38045;52.988;6.536;2023-02-18T07:33:56;10.00;99.90
52034;DHT22;38045;52.988;6.536;2023-02-18T07:36:22;10.00;99.90
52034;DHT22;38045;52.988;6.536;2023-02-18T07:38:47;10.00;99.90
52034;DHT22;38045;52.988;6.536;2023-02-18T07:41:22;10.00;99.90
52034;DHT22;38045;52.988;6.536;2023-02-18T07:43:49;10.00;99.90
52034;DHT22;38045;52.988;6.536;2023-02-18T07:46:15;10.00;99.90
52034;DHT22;38045;52.988;6.536;2023-02-18T07:48:41;10.00;99.90
52034;DHT22;38045;52.988;6.536;2023-02-18T07:51:08;10.00;99.90
52034;DHT22;38045;52.988;6.536;2023-02-18T07:53:35;10.00;99.90
52034;DHT22;38045;52.988;6.536;2023-02-18T07:56:01;10.00;99.90
52034;DHT22;38045;52.988;6.536;2023-02-18T07:58:29;10.00;99.90
52034;DHT22;38045;52.988;6.536;2023-02-18T08:00:56;10.00;99.90
52034;DHT22;38045;52.988;6.536;2023-02-18T08:03:24;10.00;99.90
52034;DHT22;38045;52.988;6.536;2023-02-18T08:05:51;9.90;99.90
52034;DHT22;38045;52.988;6.536;2023-02-18T08:08:19;10.00;99.90
52034;DHT22;38045;52.988;6.536;2023-02-18T08:10:46;10.00;99.90
52034;DHT22;38045;52.988;6.536;2023-02-18T08:13:12;10.00;99.90
52034;DHT22;38045;52.988;6.536;2023-02-18T08:15:38;9.90;99.90
52034;DHT22;38045;52.988;6.536;2023-02-18T08:18:05;9.90;99.90
52034;DHT22;38045;52.988;6.536;2023-02-18T08:20:34;10.00;99.90
52034;DHT22;38045;52.988;6.536;2023-02-18T08:22:59;10.00;99.90
52034;DHT22;38045;52.988;6.536;2023-02-18T08:25:25;10.00;99.90
52034;DHT22;38045;52.988;6.536;2023-02-18T08:27:51;10.00;99.90
52034;DHT22;38045;52.988;6.536;2023-02-18T08:30:16;10.00;99.90
52034;DHT22;38045;52.988;6.536;2023-02-18T08:32:42;10.00;99.90
52034;DHT22;38045;52.988;6.536;2023-02-18T08:35:10;10.00;99.90
52034;DHT22;38045;52.988;6.536;2023-02-18T08:37:36;10.00;99.90
52034;DHT22;38045;52.988;6.536;2023-02-18T08:40:02;10.00;99.90
52034;DHT22;38045;52.988;6.536;2023-02-18T08:42:28;10.00;99.90
52034;DHT22;38045;52.988;6.536;2023-02-18T08:44:54;10.00;99.90
52034;DHT22;38045;52.988;6.536;2023-02-18T08:47:20;10.00;99.90
52034;DHT22;38045;52.988;6.536;2023-02-18T08:49:45;10.00;99.90
52034;DHT22;38045;52.988;6.536;2023-02-18T08:52:11;10.00;99.90
52034;DHT22;38045;52.988;6.536;2023-02-18T08:54:37;9.90;99.90
52034;DHT22;38045;52.988;6.536;2023-02-18T08:57:03;9.90;99.90
52034;DHT22;38045;52.988;6.536;2023-02-18T08:59:28;9.90;99.90
52034;DHT22;38045;52.988;6.536;2023-02-18T09:01:54;9.80;99.90
52034;DHT22;38045;52.988;6.536;2023-02-18T09:04:20;9.80;99.90
52034;DHT22;38045;52.988;6.536;2023-02-18T09:06:46;9.90;99.90
52034;DHT22;38045;52.988;6.536;2023-02-18T09:09:13;9.80;99.90
52034;DHT22;38045;52.988;6.536;2023-02-18T09:11:38;9.80;99.90
52034;DHT22;38045;52.988;6.536;2023-02-18T09:14:04;9.80;99.90
52034;DHT22;38045;52.988;6.536;2023-02-18T09:16:30;9.70;99.90
52034;DHT22;38045;52.988;6.536;2023-02-18T09:18:55;9.70;99.90
52034;DHT22;38045;52.988;6.536;2023-02-18T09:21:23;9.70;99.90
52034;DHT22;38045;52.988;6.536;2023-02-18T09:23:49;9.70;99.90
52034;DHT22;38045;52.988;6.536;2023-02-18T09:26:17;9.60;99.90
52034;DHT22;38045;52.988;6.536;2023-02-18T09:28:45;9.50;99.90
52034;DHT22;38045;52.988;6.536;2023-02-18T09:31:15;9.50;99.90
52034;DHT22;38045;52.988;6.536;2023-02-18T09:33:45;9.60;99.90
52034;DHT22;38045;52.988;6.536;2023-02-18T09:36:11;9.50;99.90
52034;DHT22;38045;52.988;6.536;2023-02-18T09:38:36;9.50;99.90
52034;DHT22;38045;52.988;6.536;2023-02-18T09:41:05;9.50;99.90
52034;DHT22;38045;52.988;6.536;2023-02-18T09:43:35;9.50;99.90
52034;DHT22;38045;52.988;6.536;2023-02-18T09:46:04;9.50;99.90
52034;DHT22;38045;52.988;6.536;2023-02-18T09:48:34;9.50;99.90
52034;DHT22;38045;52.988;6.536;2023-02-18T09:51:00;9.50;99.90
52034;DHT22;38045;52.988;6.536;2023-02-18T09:53:26;9.50;99.90
52034;DHT22;38045;52.988;6.536;2023-02-18T09:55:55;9.50;99.90
52034;DHT22;38045;52.988;6.536;2023-02-18T09:58:27;9.40;99.90
52034;DHT22;38045;52.988;6.536;2023-02-18T10:01:06;9.40;99.90
52034;DHT22;38045;52.988;6.536;2023-02-18T10:03:36;9.40;99.90
52034;DHT22;38045;52.988;6.536;2023-02-18T10:06:04;9.50;99.90
52034;DHT22;38045;52.988;6.536;2023-02-18T10:08:43;9.50;99.90
52034;DHT22;38045;52.988;6.536;2023-02-18T10:11:11;9.40;99.90
52034;DHT22;38045;52.988;6.536;2023-02-18T10:13:41;9.50;99.90
52034;DHT22;38045;52.988;6.536;2023-02-18T10:16:08;9.50;99.90
52034;DHT22;38045;52.988;6.536;2023-02-18T10:18:47;9.50;99.90
52034;DHT22;38045;52.988;6.536;2023-02-18T10:21:19;9.60;99.90
52034;DHT22;38045;52.988;6.536;2023-02-18T10:24:11;9.70;99.90
52034;DHT22;38045;52.988;6.536;2023-02-18T10:26:38;9.70;99.90
52034;DHT22;38045;52.988;6.536;2023-02-18T10:29:14;9.70;99.90
52034;DHT22;38045;52.988;6.536;2023-02-18T10:31:43;9.80;99.90
52034;DHT22;38045;52.988;6.536;2023-02-18T10:37:30;9.90;99.90
52034;DHT22;38045;52.988;6.536;2023-02-18T10:43:23;10.10;99.90
52034;DHT22;38045;52.988;6.536;2023-02-18T10:45:59;10.10;99.90
52034;DHT22;38045;52.988;6.536;2023-02-18T10:53:48;10.20;99.90
52034;DHT22;38045;52.988;6.536;2023-02-18T10:56:37;10.20;99.90
52034;DHT22;38045;52.988;6.536;2023-02-18T10:59:23;10.30;99.90
52034;DHT22;38045;52.988;6.536;2023-02-18T11:04:34;10.40;99.90
52034;DHT22;38045;52.988;6.536;2023-02-18T11:07:07;10.50;99.90
52034;DHT22;38045;52.988;6.536;2023-02-18T11:09:57;10.50;99.90
52034;DHT22;38045;52.988;6.536;2023-02-18T11:12:46;10.60;99.90
52034;DHT22;38045;52.988;6.536;2023-02-18T11:17:39;10.70;99.90
52034;DHT22;38045;52.988;6.536;2023-02-18T11:20:25;10.80;99.90
52034;DHT22;38045;52.988;6.536;2023-02-18T11:22:53;10.90;99.90
52034;DHT22;38045;52.988;6.536;2023-02-18T11:25:30;10.90;99.90
52034;DHT22;38045;52.988;6.536;2023-02-18T11:28:39;11.10;99.90
52034;DHT22;38045;52.988;6.536;2023-02-18T11:31:07;11.10;99.90
52034;DHT22;38045;52.988;6.536;2023-02-18T11:33:39;11.20;99.90
52034;DHT22;38045;52.988;6.536;2023-02-18T11:36:23;11.30;99.90
52034;DHT22;38045;52.988;6.536;2023-02-18T11:38:52;11.20;99.90
52034;DHT22;38045;52.988;6.536;2023-02-18T11:42:05;11.10;99.90
52034;DHT22;38045;52.988;6.536;2023-02-18T11:44:39;11.10;99.90
52034;DHT22;38045;52.988;6.536;2023-02-18T11:49:36;11.10;99.90
52034;DHT22;38045;52.988;6.536;2023-02-18T11:52:27;11.10;99.90
52034;DHT22;38045;52.988;6.536;2023-02-18T11:57:26;11.10;99.90
52034;DHT22;38045;52.988;6.536;2023-02-18T11:59:52;11.20;99.90
52034;DHT22;38045;52.988;6.536;2023-02-18T12:02:33;11.20;99.90
52034;DHT22;38045;52.988;6.536;2023-02-18T12:05:14;11.20;99.90
52034;DHT22;38045;52.988;6.536;2023-02-18T12:07:47;11.20;99.90
52034;DHT22;38045;52.988;6.536;2023-02-18T12:10:33;11.20;99.90
52034;DHT22;38045;52.988;6.536;2023-02-18T12:13:09;11.20;99.90
52034;DHT22;38045;52.988;6.536;2023-02-18T12:24:55;11.30;99.90
52034;DHT22;38045;52.988;6.536;2023-02-18T12:27:37;11.30;99.90
52034;DHT22;38045;52.988;6.536;2023-02-18T12:33:29;11.30;99.90
52034;DHT22;38045;52.988;6.536;2023-02-18T12:38:56;11.30;99.90
52034;DHT22;38045;52.988;6.536;2023-02-18T12:47:29;11.40;99.90
52034;DHT22;38045;52.988;6.536;2023-02-18T12:58:23;11.50;99.90
52034;DHT22;38045;52.988;6.536;2023-02-18T13:06:27;11.70;99.90
52034;DHT22;38045;52.988;6.536;2023-02-18T13:14:54;11.80;99.90
52034;DHT22;38045;52.988;6.536;2023-02-18T13:17:24;11.90;99.90
52034;DHT22;38045;52.988;6.536;2023-02-18T13:19:58;11.90;99.90
52034;DHT22;38045;52.988;6.536;2023-02-18T13:22:28;11.90;99.90
52034;DHT22;38045;52.988;6.536;2023-02-18T13:24:56;11.80;99.90
52034;DHT22;38045;52.988;6.536;2023-02-18T13:27:49;11.70;99.90
52034;DHT22;38045;52.988;6.536;2023-02-18T13:40:47;11.50;99.90
52034;DHT22;38045;52.988;6.536;2023-02-18T13:43:35;11.50;99.90
52034;DHT22;38045;52.988;6.536;2023-02-18T13:51:41;11.40;99.90
52034;DHT22;38045;52.988;6.536;2023-02-18T13:56:51;11.50;99.90
52034;DHT22;38045;52.988;6.536;2023-02-18T14:04:57;11.50;99.90
52034;DHT22;38045;52.988;6.536;2023-02-18T14:10:38;11.50;99.90
52034;DHT22;38045;52.988;6.536;2023-02-18T14:33:39;11.50;99.90
52034;DHT22;38045;52.988;6.536;2023-02-18T14:36:18;11.50;99.90
52034;DHT22;38045;52.988;6.536;2023-02-18T14:39:21;11.50;99.90
52034;DHT22;38045;52.988;6.536;2023-02-18T14:49:59;11.40;99.90
52034;DHT22;38045;52.988;6.536;2023-02-18T14:54:57;11.40;99.90
52034;DHT22;38045;52.988;6.536;2023-02-18T14:57:44;11.40;99.90
52034;DHT22;38045;52.988;6.536;2023-02-18T15:00:31;11.40;99.90
52034;DHT22;38045;52.988;6.536;2023-02-18T15:02:59;11.30;99.90
52034;DHT22;38045;52.988;6.536;2023-02-18T15:05:30;11.30;99.90
52034;DHT22;38045;52.988;6.536;2023-02-18T15:08:14;11.30;99.90
52034;DHT22;38045;52.988;6.536;2023-02-18T15:10:58;11.20;99.90
52034;DHT22;38045;52.988;6.536;2023-02-18T15:16:02;11.20;99.90
52034;DHT22;38045;52.988;6.536;2023-02-18T15:21:05;11.10;99.90
52034;DHT22;38045;52.988;6.536;2023-02-18T15:23:38;11.10;99.90
52034;DHT22;38045;52.988;6.536;2023-02-18T15:26:05;11.00;99.90
52034;DHT22;38045;52.988;6.536;2023-02-18T15:28:38;11.00;99.90
52034;DHT22;38045;52.988;6.536;2023-02-18T15:31:10;10.90;99.90
52034;DHT22;38045;52.988;6.536;2023-02-18T15:33:42;10.90;99.90
52034;DHT22;38045;52.988;6.536;2023-02-18T15:36:12;10.90;99.90
52034;DHT22;38045;52.988;6.536;2023-02-18T15:38:39;10.80;99.90
52034;DHT22;38045;52.988;6.536;2023-02-18T15:41:14;10.80;99.90
52034;DHT22;38045;52.988;6.536;2023-02-18T15:43:56;10.70;99.90
52034;DHT22;38045;52.988;6.536;2023-02-18T15:46:25;10.70;99.90
52034;DHT22;38045;52.988;6.536;2023-02-18T15:48:52;10.70;99.90
52034;DHT22;38045;52.988;6.536;2023-02-18T15:51:24;10.70;99.90
52034;DHT22;38045;52.988;6.536;2023-02-18T15:53:52;10.70;99.90
52034;DHT22;38045;52.988;6.536;2023-02-18T15:56:38;10.60;99.90
52034;DHT22;38045;52.988;6.536;2023-02-18T15:59:24;10.60;99.90
52034;DHT22;38045;52.988;6.536;2023-02-18T16:01:53;10.60;99.90
52034;DHT22;38045;52.988;6.536;2023-02-18T16:04:21;10.60;99.90
52034;DHT22;38045;52.988;6.536;2023-02-18T16:06:52;10.50;99.90
52034;DHT22;38045;52.988;6.536;2023-02-18T16:09:34;10.50;99.90
52034;DHT22;38045;52.988;6.536;2023-02-18T16:12:04;10.50;99.90
52034;DHT22;38045;52.988;6.536;2023-02-18T16:14:45;10.40;99.90
52034;DHT22;38045;52.988;6.536;2023-02-18T16:19:46;10.50;99.90
52034;DHT22;38045;52.988;6.536;2023-02-18T16:22:46;10.40;99.90
52034;DHT22;38045;52.988;6.536;2023-02-18T16:25:24;10.30;99.90
52034;DHT22;38045;52.988;6.536;2023-02-18T16:30:29;10.20;99.90
52034;DHT22;38045;52.988;6.536;2023-02-18T16:32:56;10.20;99.90
52034;DHT22;38045;52.988;6.536;2023-02-18T16:35:22;10.20;99.90
52034;DHT22;38045;52.988;6.536;2023-02-18T16:37:49;10.10;99.90
52034;DHT22;38045;52.988;6.536;2023-02-18T16:40:30;10.10;99.90
52034;DHT22;38045;52.988;6.536;2023-02-18T16:43:11;10.10;99.90
52034;DHT22;38045;52.988;6.536;2023-02-18T16:45:58;10.10;99.90
52034;DHT22;38045;52.988;6.536;2023-02-18T16:48:39;10.00;99.90
52034;DHT22;38045;52.988;6.536;2023-02-18T16:51:30;10.00;99.90
52034;DHT22;38045;52.988;6.536;2023-02-18T16:53:57;10.00;99.90
52034;DHT22;38045;52.988;6.536;2023-02-18T16:56:25;10.00;99.90
52034;DHT22;38045;52.988;6.536;2023-02-18T16:58:50;10.00;99.90
52034;DHT22;38045;52.988;6.536;2023-02-18T17:01:32;10.00;99.90
52034;DHT22;38045;52.988;6.536;2023-02-18T17:03:59;10.00;99.90
52034;DHT22;38045;52.988;6.536;2023-02-18T17:06:26;10.00;99.90
52034;DHT22;38045;52.988;6.536;2023-02-18T17:08:52;10.00;99.90
52034;DHT22;38045;52.988;6.536;2023-02-18T17:11:21;9.90;99.90
52034;DHT22;38045;52.988;6.536;2023-02-18T17:13:48;10.00;99.90
52034;DHT22;38045;52.988;6.536;2023-02-18T17:16:15;10.00;99.90
52034;DHT22;38045;52.988;6.536;2023-02-18T17:18:41;9.90;99.90
52034;DHT22;38045;52.988;6.536;2023-02-18T17:21:16;9.90;99.90
52034;DHT22;38045;52.988;6.536;2023-02-18T17:23:42;9.90;99.90
52034;DHT22;38045;52.988;6.536;2023-02-18T17:26:13;9.80;99.90
52034;DHT22;38045;52.988;6.536;2023-02-18T17:28:38;9.80;99.90
52034;DHT22;38045;52.988;6.536;2023-02-18T17:31:04;9.80;99.90
52034;DHT22;38045;52.988;6.536;2023-02-18T17:33:30;9.80;99.90
52034;DHT22;38045;52.988;6.536;2023-02-18T17:35:56;9.80;99.90
52034;DHT22;38045;52.988;6.536;2023-02-18T17:38:21;9.70;99.90
52034;DHT22;38045;52.988;6.536;2023-02-18T17:40:47;9.70;99.90
52034;DHT22;38045;52.988;6.536;2023-02-18T17:43:17;9.70;99.90
52034;DHT22;38045;52.988;6.536;2023-02-18T17:45:54;9.70;99.90
52034;DHT22;38045;52.988;6.536;2023-02-18T17:48:20;9.60;99.90
52034;DHT22;38045;52.988;6.536;2023-02-18T17:50:46;9.70;99.90
52034;DHT22;38045;52.988;6.536;2023-02-18T17:53:12;9.70;99.90
52034;DHT22;38045;52.988;6.536;2023-02-18T17:55:39;9.70;99.90
52034;DHT22;38045;52.988;6.536;2023-02-18T17:58:05;9.70;99.90
52034;DHT22;38045;52.988;6.536;2023-02-18T18:00:34;9.70;99.90
52034;DHT22;38045;52.988;6.536;2023-02-18T18:03:00;9.70;99.90
52034;DHT22;38045;52.988;6.536;2023-02-18T18:07:53;9.70;99.90
52034;DHT22;38045;52.988;6.536;2023-02-18T18:10:21;9.60;99.90
52034;DHT22;38045;52.988;6.536;2023-02-18T18:12:48;9.60;99.90
52034;DHT22;38045;52.988;6.536;2023-02-18T18:15:36;9.70;99.90
52034;DHT22;38045;52.988;6.536;2023-02-18T18:18:02;9.60;99.90
52034;DHT22;38045;52.988;6.536;2023-02-18T18:20:30;9.60;99.90
52034;DHT22;38045;52.988;6.536;2023-02-18T18:22:58;9.70;99.90
52034;DHT22;38045;52.988;6.536;2023-02-18T18:25:28;9.60;99.90
52034;DHT22;38045;52.988;6.536;2023-02-18T18:27:54;9.60;99.90
52034;DHT22;38045;52.988;6.536;2023-02-18T18:30:22;9.60;99.90
52034;DHT22;38045;52.988;6.536;2023-02-18T18:32:48;9.60;99.90
52034;DHT22;38045;52.988;6.536;2023-02-18T18:37:48;9.60;99.90
52034;DHT22;38045;52.988;6.536;2023-02-18T18:40:14;9.60;99.90
52034;DHT22;38045;52.988;6.536;2023-02-18T18:42:39;9.60;99.90
52034;DHT22;38045;52.988;6.536;2023-02-18T18:45:06;9.60;99.90
52034;DHT22;38045;52.988;6.536;2023-02-18T18:47:31;9.60;99.90
52034;DHT22;38045;52.988;6.536;2023-02-18T18:49:57;9.50;99.90
52034;DHT22;38045;52.988;6.536;2023-02-18T18:52:22;9.50;99.90
52034;DHT22;38045;52.988;6.536;2023-02-18T18:54:48;9.60;99.90
52034;DHT22;38045;52.988;6.536;2023-02-18T18:57:13;9.60;99.90